Pagina principale
METAR-TAF:

METAR-TAF

Aeroporti :

Aeroporto Internazionale di Honiara

Honiara, Guadalcanal, Isole Salomone

latitudine: 09-25S, longitudine: 160-03E, altezza: 8 m

Osservazione

Il bollettino è stato emesso 54 minuti fa, alle 18:00 UTC
Vento calmo
Temperature 24°C
Umidità 94%
Pressione 1008 hPa
Visibilità 10 km o più
Poco nuvoloso ad un'altezza di 1400 ft

METAR: AGGH 241800Z 00000KT 9999 FEW014 24/23 Q1008

Ora: 05:54 (18:54 UTC)

Previsione

Il bollettino è stato emesso 1 ora e 44 minuti fa, alle 17:10 UTC
Previsione valida dal 24 alle 18 UTC al 25 alle 18 UTC
Vento 10 kt da nord/nord-est
Visibilità: 1007 m
Nubi sparse ad un'altezza di 1800 ft

TAF: AGGH 241710Z 2418/2518 02010KT 9999 SCT018 T 25 27 31 32 Q 1007 1009 1009 1007

Osservazioni e previsioni meteorologiche di più di 4000 aeroporti (messaggi METAR e TAF).

Le stazioni disponibili sono rappresentate dai dischi gialli e rossi sulla carta.

Puntare il mouse per vedere il nome della stazione.

Clicca sopra per visualizzare le osservazioni e previsioni meteorologiche.

Per cambiare la mappa : fare clic sui pulsanti verdi con una croce nera per ingrandire, il pulsante verde con un trattino per diminuire, o sulla freccia verde per le mappe adiacenti.


METAR-TAF: